Time;durP1;ratioP1;P1;durP2;ratioP2;P2;SDS_P1;SDS_P2;PMS_P1;PMS_P2;Temp;Humidity;BMP_temperature;BMP_pressure;BME280_temperature;BME280_humidity;BME280_pressure;Samples;Min_cycle;Max_cycle;Signal;HPM_P1;HPM_P2
2024/05/08 00:00:00;;;;;;;8.65;6.68;;;13.00;99.70;;;;;;5324233;26;20011;-80
2024/05/08 00:02:30;;;;;;;9.13;6.97;;;13.00;99.70;;;;;;5377552;26;20450;-80
2024/05/08 00:04:57;;;;;;;7.88;5.63;;;13.00;99.60;;;;;;5348526;26;20000;-80
2024/05/08 00:07:24;;;;;;;8.32;6.70;;;13.00;99.70;;;;;;5326033;26;20015;-80
2024/05/08 00:09:51;;;;;;;8.00;6.72;;;12.90;99.60;;;;;;5314049;26;20001;-80
2024/05/08 00:12:18;;;;;;;9.85;6.03;;;12.90;99.70;;;;;;5346464;26;20438;-80
2024/05/08 00:14:45;;;;;;;9.60;6.97;;;12.90;99.70;;;;;;5317610;26;20001;-80
2024/05/08 00:17:12;;;;;;;10.48;6.40;;;12.90;99.60;;;;;;5317602;26;20535;-80
2024/05/08 00:19:40;;;;;;;15.18;8.27;;;12.90;99.70;;;;;;5347789;26;20001;-80
2024/05/08 00:22:07;;;;;;;10.50;7.18;;;12.80;99.70;;;;;;5346155;26;20015;-80
2024/05/08 00:24:34;;;;;;;10.13;7.95;;;12.90;99.70;;;;;;5317741;26;20013;-80
2024/05/08 00:27:01;;;;;;;9.07;6.78;;;12.90;99.70;;;;;;5346353;26;20079;-80
2024/05/08 00:29:28;;;;;;;8.75;6.85;;;12.90;99.90;;;;;;5346154;26;20033;-80
2024/05/08 00:31:55;;;;;;;8.65;7.00;;;12.90;99.70;;;;;;5345811;26;20016;-80
2024/05/08 00:34:22;;;;;;;10.70;6.72;;;12.90;99.80;;;;;;5317524;26;20029;-80
2024/05/08 00:36:49;;;;;;;8.70;6.85;;;12.90;99.70;;;;;;5345900;26;20004;-80
2024/05/08 00:39:16;;;;;;;10.88;7.05;;;12.90;99.70;;;;;;5346299;26;20007;-80
2024/05/08 00:41:43;;;;;;;9.88;6.72;;;12.90;99.80;;;;;;5345833;26;20334;-79
2024/05/08 00:44:10;;;;;;;8.82;6.95;;;12.90;99.80;;;;;;5347756;26;20001;-80
2024/05/08 00:46:38;;;;;;;9.20;6.05;;;12.80;99.80;;;;;;5317879;26;20003;-80
2024/05/08 00:49:05;;;;;;;10.77;7.50;;;12.70;99.90;;;;;;5374889;26;20445;-79
2024/05/08 00:51:33;;;;;;;12.05;7.13;;;12.70;99.90;;;;;;5317334;26;20012;-80
2024/05/08 00:54:00;;;;;;;9.85;6.88;;;12.70;99.90;;;;;;5345445;26;20078;-79
2024/05/08 00:56:28;;;;;;;10.02;7.45;;;12.70;99.90;;;;;;5317181;26;20082;-79
2024/05/08 00:58:55;;;;;;;11.77;6.90;;;12.70;99.90;;;;;;5317060;26;20000;-80
2024/05/08 01:01:22;;;;;;;12.45;7.97;;;12.70;99.90;;;;;;5344076;26;20004;-80
2024/05/08 01:03:49;;;;;;;8.98;6.75;;;12.70;99.90;;;;;;5344969;26;20001;-80
2024/05/08 01:06:19;;;;;;;10.60;6.97;;;12.70;99.90;;;;;;5289861;26;20019;-80
2024/05/08 01:08:49;;;;;;;11.02;7.25;;;12.70;99.90;;;;;;5345213;26;20442;-80
2024/05/08 01:11:16;;;;;;;11.93;8.18;;;12.70;99.90;;;;;;5345848;26;20000;-80
2024/05/08 01:13:43;;;;;;;7.20;4.90;;;12.60;99.90;;;;;;5316835;26;20001;-80
2024/05/08 01:16:10;;;;;;;10.60;7.80;;;12.60;99.90;;;;;;5317005;26;20004;-80
2024/05/08 01:18:38;;;;;;;11.35;8.60;;;12.60;99.90;;;;;;5345465;26;20083;-80
2024/05/08 01:21:05;;;;;;;12.73;9.05;;;12.50;99.90;;;;;;5345312;26;20012;-79
2024/05/08 01:23:32;;;;;;;10.95;8.77;;;12.50;99.90;;;;;;5345369;26;20082;-79
2024/05/08 01:26:00;;;;;;;10.88;7.90;;;12.50;99.90;;;;;;5345449;26;20104;-80
2024/05/08 01:28:27;;;;;;;13.00;8.52;;;12.50;99.90;;;;;;5345599;26;20020;-80
2024/05/08 01:30:54;;;;;;;10.70;7.85;;;12.50;99.90;;;;;;5345046;26;20014;-79
2024/05/08 01:33:21;;;;;;;11.02;7.75;;;12.50;99.90;;;;;;5345277;26;20081;-79
2024/05/08 01:35:48;;;;;;;12.75;8.77;;;12.50;99.90;;;;;;5344889;26;20456;-79
2024/05/08 01:38:15;;;;;;;11.30;7.97;;;12.50;99.90;;;;;;5316826;26;20001;-79
2024/05/08 01:40:42;;;;;;;15.45;9.30;;;12.50;99.90;;;;;;5344994;26;20069;-80
2024/05/08 01:43:10;;;;;;;11.07;8.38;;;12.50;99.90;;;;;;5316164;26;20000;-79
2024/05/08 01:45:37;;;;;;;11.77;9.07;;;12.50;99.90;;;;;;5288400;26;20001;-80
2024/05/08 01:48:05;;;;;;;13.55;8.13;;;12.50;99.90;;;;;;5316347;26;20016;-79
2024/05/08 01:50:33;;;;;;;12.77;9.13;;;12.50;99.90;;;;;;5345233;26;20078;-79
2024/05/08 01:53:03;;;;;;;13.45;8.95;;;12.40;99.90;;;;;;5344645;26;20033;-79
2024/05/08 01:55:30;;;;;;;12.75;8.93;;;12.40;99.90;;;;;;5316422;26;19997;-79
2024/05/08 01:57:57;;;;;;;12.75;9.23;;;12.40;99.90;;;;;;5346418;26;20041;-80
2024/05/08 02:00:24;;;;;;;14.55;8.90;;;12.40;99.90;;;;;;5316884;26;20013;-80
2024/05/08 02:02:57;;;;;;;12.40;7.72;;;12.40;99.90;;;;;;5373352;26;20001;-79
2024/05/08 02:05:24;;;;;;;14.50;9.88;;;12.50;99.90;;;;;;5373840;26;19997;-79
2024/05/08 02:07:51;;;;;;;16.33;10.10;;;12.50;99.90;;;;;;5344880;26;20868;-79
2024/05/08 02:10:19;;;;;;;12.85;9.60;;;12.80;99.90;;;;;;5316058;26;20008;-79
2024/05/08 02:12:47;;;;;;;11.30;8.48;;;12.60;99.90;;;;;;5346390;26;20016;-79
2024/05/08 02:15:14;;;;;;;13.30;9.13;;;12.70;99.90;;;;;;5315885;26;20023;-79
2024/05/08 02:17:41;;;;;;;12.00;7.85;;;12.70;99.90;;;;;;5344389;26;20012;-80
2024/05/08 02:20:09;;;;;;;12.40;8.00;;;12.80;99.90;;;;;;5346140;26;20078;-79
2024/05/08 02:22:41;;;;;;;12.23;10.02;;;12.80;99.90;;;;;;5344651;26;20001;-79
2024/05/08 02:25:08;;;;;;;14.05;8.38;;;12.80;99.90;;;;;;5287758;26;20015;-79
2024/05/08 02:27:35;;;;;;;12.98;8.27;;;12.80;99.90;;;;;;5346018;26;20029;-79
2024/05/08 02:30:02;;;;;;;14.70;9.40;;;12.80;99.90;;;;;;5344248;26;20446;-79
2024/05/08 02:32:35;;;;;;;13.13;9.05;;;12.90;99.90;;;;;;5346327;26;20012;-79
2024/05/08 02:35:02;;;;;;;11.55;7.85;;;12.80;99.90;;;;;;5344637;26;19997;-79
2024/05/08 02:37:29;;;;;;;12.27;8.73;;;12.90;99.90;;;;;;5344316;26;20519;-80
2024/05/08 02:39:56;;;;;;;12.77;8.77;;;12.90;99.90;;;;;;5344473;26;20001;-79
2024/05/08 02:42:23;;;;;;;13.82;8.35;;;12.90;99.90;;;;;;5344570;26;19997;-79
2024/05/08 02:44:50;;;;;;;13.57;9.93;;;12.90;99.90;;;;;;5344427;26;19997;-79
2024/05/08 02:47:17;;;;;;;11.60;8.98;;;13.00;99.90;;;;;;5373104;26;20008;-79
2024/05/08 02:49:45;;;;;;;15.80;8.98;;;13.00;99.90;;;;;;5344201;26;20315;-79
2024/05/08 02:52:12;;;;;;;13.40;8.93;;;13.00;99.90;;;;;;5343701;26;20074;-80
2024/05/08 02:54:39;;;;;;;14.13;9.30;;;13.00;99.90;;;;;;5345814;26;20008;-79
2024/05/08 02:57:06;;;;;;;11.43;9.35;;;13.00;99.90;;;;;;5343670;26;20442;-79
2024/05/08 02:59:33;;;;;;;13.02;8.85;;;13.00;99.90;;;;;;5343900;26;20015;-79
2024/05/08 03:02:00;;;;;;;12.88;8.93;;;13.10;99.90;;;;;;5346132;26;20467;-79
2024/05/08 03:04:27;;;;;;;13.38;9.45;;;13.10;99.90;;;;;;5343194;26;20001;-79
2024/05/08 03:06:54;;;;;;;13.95;8.77;;;13.10;99.90;;;;;;5341158;26;20080;-79
2024/05/08 03:09:21;;;;;;;14.70;9.90;;;13.10;99.90;;;;;;5343547;26;20001;-79
2024/05/08 03:11:48;;;;;;;13.90;9.70;;;13.10;99.90;;;;;;5344255;26;20092;-79
2024/05/08 03:14:15;;;;;;;13.40;9.13;;;13.10;99.90;;;;;;5315156;26;20474;-79
2024/05/08 03:16:42;;;;;;;16.63;10.30;;;13.00;99.90;;;;;;5345518;26;20351;-79
2024/05/08 03:19:09;;;;;;;13.48;9.32;;;13.00;99.90;;;;;;5286629;26;20397;-79
2024/05/08 03:21:41;;;;;;;15.88;8.75;;;13.00;99.90;;;;;;5343628;26;20008;-79
2024/05/08 03:24:12;;;;;;;13.68;9.82;;;13.00;99.90;;;;;;5315438;26;20003;-79
2024/05/08 03:26:40;;;;;;;14.88;9.98;;;12.90;99.90;;;;;;5344085;26;20071;-79
2024/05/08 03:29:07;;;;;;;14.20;10.93;;;13.00;99.90;;;;;;5343111;26;20012;-79
2024/05/08 03:31:34;;;;;;;14.65;10.05;;;13.00;99.90;;;;;;5343655;26;20001;-79
2024/05/08 03:34:01;;;;;;;18.20;11.00;;;13.00;99.90;;;;;;5343154;26;20338;-79
2024/05/08 03:36:28;;;;;;;16.77;10.50;;;13.00;99.90;;;;;;5315041;26;20435;-79
2024/05/08 03:38:56;;;;;;;13.52;8.90;;;13.00;99.90;;;;;;5345044;26;20446;-79
2024/05/08 03:41:23;;;;;;;15.30;9.25;;;13.00;99.90;;;;;;5314682;26;20338;-79
2024/05/08 03:43:50;;;;;;;17.75;12.27;;;13.00;99.90;;;;;;5352422;26;20009;-79
2024/05/08 03:46:22;;;;;;;14.55;9.73;;;13.00;99.90;;;;;;5373433;26;20356;-79
2024/05/08 03:48:49;;;;;;;18.70;11.50;;;12.90;99.90;;;;;;5345635;26;20011;-79
2024/05/08 03:51:16;;;;;;;18.88;12.70;;;12.90;99.90;;;;;;5317810;26;19997;-79
2024/05/08 03:53:43;;;;;;;19.23;11.82;;;12.90;99.90;;;;;;5318177;26;20008;-79
2024/05/08 03:56:11;;;;;;;16.92;11.32;;;13.00;99.90;;;;;;5318073;26;19996;-79
2024/05/08 03:58:42;;;;;;;19.23;11.88;;;13.00;99.90;;;;;;5346684;26;20012;-79
2024/05/08 04:01:09;;;;;;;15.85;10.40;;;13.00;99.90;;;;;;5318277;26;20048;-80
2024/05/08 04:03:36;;;;;;;16.67;10.32;;;13.00;99.90;;;;;;5346446;26;20070;-79
2024/05/08 04:06:09;;;;;;;14.82;11.02;;;13.00;99.90;;;;;;5289602;26;20334;-79
2024/05/08 04:08:41;;;;;;;15.48;10.05;;;13.00;99.90;;;;;;5346351;26;20075;-79
2024/05/08 04:11:08;;;;;;;16.55;10.27;;;12.90;99.90;;;;;;5347161;26;20001;-79
2024/05/08 04:13:35;;;;;;;17.48;11.30;;;12.90;99.90;;;;;;5317550;26;20013;-79
2024/05/08 04:16:02;;;;;;;15.63;10.20;;;12.90;99.90;;;;;;5375280;26;20016;-79
2024/05/08 04:18:29;;;;;;;16.70;11.00;;;13.00;99.90;;;;;;5375087;26;20001;-79
2024/05/08 04:20:56;;;;;;;18.63;13.52;;;13.00;99.90;;;;;;5346332;26;20001;-79
2024/05/08 04:23:24;;;;;;;19.35;12.50;;;13.00;99.90;;;;;;5317245;26;20457;-79
2024/05/08 04:25:51;;;;;;;20.10;14.23;;;13.00;99.90;;;;;;5346189;26;20082;-79
2024/05/08 04:28:21;;;;;;;17.38;11.13;;;13.00;99.90;;;;;;5317306;26;20015;-79
2024/05/08 04:30:48;;;;;;;16.88;11.25;;;13.10;99.90;;;;;;5318358;26;20330;-79
2024/05/08 04:33:15;;;;;;;15.15;10.75;;;13.10;99.90;;;;;;5317566;26;20008;-79
2024/05/08 04:35:42;;;;;;;16.48;11.90;;;13.10;99.90;;;;;;5346328;26;20041;-79
2024/05/08 04:38:13;;;;;;;13.88;9.38;;;13.10;99.90;;;;;;5345899;26;20071;-79
2024/05/08 04:40:41;;;;;;;16.33;10.20;;;13.10;99.90;;;;;;5346595;26;20008;-79
2024/05/08 04:43:10;;;;;;;15.18;9.60;;;13.20;99.90;;;;;;5317300;26;20334;-79
2024/05/08 04:45:37;;;;;;;11.95;9.43;;;13.20;99.90;;;;;;5317651;26;20055;-79
2024/05/08 04:48:04;;;;;;;13.90;10.20;;;13.20;99.90;;;;;;5317227;26;20001;-79
2024/05/08 04:50:32;;;;;;;15.30;12.18;;;13.20;99.90;;;;;;5345536;26;20011;-79
2024/05/08 04:53:01;;;;;;;14.13;11.85;;;13.20;99.90;;;;;;5345908;26;20082;-79
2024/05/08 04:55:28;;;;;;;13.93;12.52;;;13.20;99.90;;;;;;5288756;26;20001;-79
2024/05/08 04:57:55;;;;;;;14.68;11.85;;;13.20;99.90;;;;;;5316837;26;20001;-79
2024/05/08 05:00:22;;;;;;;16.20;12.27;;;13.20;99.90;;;;;;5316175;26;20000;-79
2024/05/08 05:02:56;;;;;;;15.20;11.02;;;13.30;99.90;;;;;;5345990;26;20009;-79
2024/05/08 05:05:23;;;;;;;16.10;14.02;;;13.40;99.90;;;;;;5344236;26;20462;-79
2024/05/08 05:07:51;;;;;;;14.00;9.10;;;13.40;99.90;;;;;;5317463;26;20032;-79
2024/05/08 05:10:18;;;;;;;14.93;9.35;;;13.50;99.90;;;;;;5345305;26;20033;-79
2024/05/08 05:12:51;;;;;;;12.23;8.98;;;13.50;99.90;;;;;;5347464;26;19997;-79
2024/05/08 05:15:22;;;;;;;12.65;9.50;;;13.60;99.90;;;;;;5347320;26;20074;-79
2024/05/08 05:17:49;;;;;;;10.55;8.07;;;13.70;99.90;;;;;;5317016;26;20327;-79
2024/05/08 05:20:16;;;;;;;10.07;7.75;;;13.70;99.90;;;;;;5317157;26;20516;-79
2024/05/08 05:22:50;;;;;;;12.35;9.07;;;13.80;99.90;;;;;;5345559;26;19997;-79
2024/05/08 05:25:17;;;;;;;11.85;10.05;;;13.80;99.90;;;;;;5344978;26;20001;-79
2024/05/08 05:27:44;;;;;;;11.30;7.45;;;13.80;99.90;;;;;;5374217;26;20016;-79
2024/05/08 05:30:11;;;;;;;11.00;8.98;;;13.80;99.90;;;;;;5316813;26;20007;-79
2024/05/08 05:35:29;;;;;;;9.10;7.60;;;13.90;99.80;;;;;;5349716;26;20000;-79
2024/05/08 05:37:56;;;;;;;10.00;8.27;;;13.90;99.70;;;;;;5345152;26;20001;-79
2024/05/08 05:40:23;;;;;;;7.95;6.03;;;13.90;99.60;;;;;;5344643;26;20405;-79
2024/05/08 05:45:46;;;;;;;10.18;7.38;;;14.00;99.50;;;;;;5344555;26;20400;-80
2024/05/08 05:48:14;;;;;;;10.63;7.32;;;14.00;99.30;;;;;;5374245;26;19996;-79
2024/05/08 05:50:41;;;;;;;9.20;6.78;;;14.10;99.40;;;;;;5344669;26;20453;-79
2024/05/08 05:53:12;;;;;;;10.85;8.20;;;14.10;99.30;;;;;;5344862;26;20012;-79
2024/05/08 05:55:39;;;;;;;9.63;6.85;;;14.20;99.20;;;;;;5315841;26;20011;-79
2024/05/08 05:58:06;;;;;;;10.95;7.72;;;14.30;99.10;;;;;;5316582;26;20350;-79
2024/05/08 06:00:33;;;;;;;8.05;6.45;;;14.40;99.10;;;;;;5344467;26;20051;-80
2024/05/08 06:03:03;;;;;;;12.73;8.82;;;14.40;99.00;;;;;;5344672;26;20005;-79
2024/05/08 06:05:33;;;;;;;6.10;4.95;;;14.50;98.80;;;;;;5344114;26;20001;-80
2024/05/08 06:08:00;;;;;;;11.80;8.98;;;14.60;98.60;;;;;;5343765;26;20339;-80
2024/05/08 06:10:27;;;;;;;9.52;8.40;;;14.60;98.50;;;;;;5344607;26;20005;-80
2024/05/08 06:12:58;;;;;;;11.57;8.73;;;14.60;98.50;;;;;;5381677;26;20019;-80
2024/05/08 06:15:26;;;;;;;9.88;7.75;;;14.70;98.50;;;;;;5380958;26;20678;-80
2024/05/08 06:17:53;;;;;;;12.02;8.55;;;14.80;98.30;;;;;;5376044;26;20000;-80
2024/05/08 06:20:20;;;;;;;11.27;8.13;;;14.80;98.20;;;;;;5379504;26;20050;-80
2024/05/08 06:22:55;;;;;;;10.23;8.55;;;14.90;98.00;;;;;;5317473;26;20019;-80
2024/05/08 06:25:22;;;;;;;11.57;7.97;;;14.90;97.90;;;;;;5344517;26;20029;-80
2024/05/08 06:27:51;;;;;;;12.13;8.35;;;15.00;97.90;;;;;;5344286;26;20009;-80
2024/05/08 06:30:18;;;;;;;11.63;8.40;;;15.10;97.90;;;;;;5344486;26;19997;-80
2024/05/08 06:32:53;;;;;;;9.68;7.43;;;15.20;97.70;;;;;;5344850;26;19996;-80
2024/05/08 06:35:20;;;;;;;12.07;9.18;;;15.20;97.60;;;;;;5344560;26;20000;-80
2024/05/08 06:37:47;;;;;;;12.93;10.27;;;15.30;97.50;;;;;;5316024;26;20088;-78
2024/05/08 06:40:14;;;;;;;11.85;8.48;;;15.30;97.40;;;;;;5344484;26;20070;-78
2024/05/08 06:42:46;;;;;;;15.80;8.98;;;15.40;97.20;;;;;;5344287;26;20191;-78
2024/05/08 06:45:13;;;;;;;15.05;8.48;;;15.40;97.10;;;;;;5344231;26;20004;-78
2024/05/08 06:47:40;;;;;;;14.63;8.93;;;15.40;97.20;;;;;;5343891;26;20056;-78
2024/05/08 06:50:07;;;;;;;12.05;9.32;;;15.50;97.20;;;;;;5344304;26;20001;-78
2024/05/08 06:52:35;;;;;;;11.48;8.93;;;15.70;97.00;;;;;;5345532;26;20019;-78
2024/05/08 06:55:03;;;;;;;12.30;9.20;;;15.80;96.90;;;;;;5345712;26;20001;-78
2024/05/08 06:57:30;;;;;;;13.52;9.18;;;16.10;96.70;;;;;;5345646;26;20005;-78
2024/05/08 06:59:57;;;;;;;9.65;5.22;;;16.20;96.30;;;;;;5345797;26;20326;-78
2024/05/08 07:02:24;;;;;;;13.90;9.10;;;16.30;96.10;;;;;;5315412;26;20001;-78
2024/05/08 07:04:51;;;;;;;14.52;10.85;;;16.40;96.10;;;;;;5343565;26;20136;-78
2024/05/08 07:07:19;;;;;;;12.65;9.07;;;16.50;96.00;;;;;;5315845;26;20427;-78
2024/05/08 07:09:46;;;;;;;11.32;9.25;;;16.90;96.00;;;;;;5372719;26;20009;-79
2024/05/08 07:12:13;;;;;;;14.80;10.18;;;17.30;96.10;;;;;;5372904;26;19997;-79
2024/05/08 07:14:40;;;;;;;12.05;8.30;;;17.80;95.70;;;;;;5315483;26;20000;-79
2024/05/08 07:17:07;;;;;;;12.95;9.35;;;18.50;94.60;;;;;;5345948;26;19997;-79
2024/05/08 07:19:34;;;;;;;13.15;9.55;;;18.90;93.80;;;;;;5344753;26;20008;-79
2024/05/08 07:22:01;;;;;;;11.02;7.78;;;19.30;93.30;;;;;;5376039;26;20008;-79
2024/05/08 07:24:29;;;;;;;12.25;9.85;;;19.90;92.60;;;;;;5348612;26;20001;-79
2024/05/08 07:26:58;;;;;;;14.02;9.00;;;20.10;91.60;;;;;;5346791;26;20079;-79
2024/05/08 07:29:25;;;;;;;13.63;9.43;;;20.10;90.70;;;;;;5346916;26;20001;-79
2024/05/08 07:31:52;;;;;;;15.07;12.35;;;20.00;90.10;;;;;;5317794;26;20001;-79
2024/05/08 07:34:19;;;;;;;15.85;10.30;;;19.70;90.00;;;;;;5375491;26;20008;-79
2024/05/08 07:36:46;;;;;;;14.02;10.35;;;19.30;89.70;;;;;;5346427;26;20491;-79
2024/05/08 07:39:13;;;;;;;11.95;9.65;;;19.00;90.20;;;;;;5317849;26;20013;-79
2024/05/08 07:41:40;;;;;;;14.25;10.25;;;18.70;90.30;;;;;;5318113;26;19997;-79
2024/05/08 07:44:07;;;;;;;14.68;11.63;;;18.60;90.70;;;;;;5348230;26;20078;-79
2024/05/08 07:46:34;;;;;;;16.20;10.50;;;18.70;90.70;;;;;;5346431;26;20032;-79
2024/05/08 07:49:02;;;;;;;13.40;10.77;;;18.80;90.50;;;;;;5348093;26;20004;-79
2024/05/08 07:51:29;;;;;;;13.40;10.30;;;18.80;90.30;;;;;;5318238;26;19997;-78
2024/05/08 07:53:56;;;;;;;15.43;10.70;;;18.80;90.20;;;;;;5348001;26;20016;-78
2024/05/08 07:56:23;;;;;;;12.07;9.55;;;18.70;90.30;;;;;;5348634;26;19997;-78
2024/05/08 07:58:51;;;;;;;12.55;9.48;;;18.60;90.30;;;;;;5348110;26;20067;-78
2024/05/08 08:01:19;;;;;;;15.32;10.05;;;18.60;90.40;;;;;;5346701;26;19997;-78
2024/05/08 08:03:46;;;;;;;12.55;9.38;;;18.50;90.20;;;;;;5348014;26;20005;-78
2024/05/08 08:06:13;;;;;;;13.20;11.50;;;18.50;90.20;;;;;;5346441;26;20001;-78
2024/05/08 08:08:40;;;;;;;13.05;9.82;;;18.30;90.00;;;;;;5346280;26;20001;-78
2024/05/08 08:11:07;;;;;;;13.82;9.88;;;18.30;90.20;;;;;;5346245;26;20070;-78
2024/05/08 08:13:34;;;;;;;12.52;10.32;;;18.30;90.30;;;;;;5346315;26;20009;-78
2024/05/08 08:16:01;;;;;;;14.25;10.10;;;18.40;90.20;;;;;;5346056;26;20012;-78
2024/05/08 08:18:28;;;;;;;12.18;8.98;;;18.40;89.80;;;;;;5317827;26;20016;-78
2024/05/08 08:20:56;;;;;;;13.38;10.98;;;18.40;89.90;;;;;;5317548;26;20011;-78
2024/05/08 08:23:23;;;;;;;12.98;9.93;;;18.40;90.00;;;;;;5317471;26;20001;-78
2024/05/08 08:25:50;;;;;;;14.57;9.98;;;18.50;90.00;;;;;;5346434;26;19997;-78
2024/05/08 08:28:20;;;;;;;13.27;9.95;;;18.60;89.70;;;;;;5347973;26;20009;-78
2024/05/08 08:30:48;;;;;;;18.00;10.85;;;18.70;89.50;;;;;;5345446;26;20071;-78
2024/05/08 08:33:15;;;;;;;13.32;9.13;;;18.60;89.20;;;;;;5346084;26;20458;-78
2024/05/08 08:35:42;;;;;;;11.27;8.68;;;18.60;89.20;;;;;;5347667;26;20008;-78
2024/05/08 08:38:15;;;;;;;14.20;10.15;;;18.50;89.10;;;;;;5359104;26;20065;-78
2024/05/08 08:40:46;;;;;;;16.83;12.60;;;18.30;89.40;;;;;;5376350;26;20000;-78
2024/05/08 08:43:14;;;;;;;12.82;10.07;;;18.20;89.50;;;;;;5408067;26;20552;-78
2024/05/08 08:45:42;;;;;;;14.73;10.70;;;18.20;89.60;;;;;;5351855;26;20029;-78
2024/05/08 08:48:10;;;;;;;13.88;10.50;;;18.20;89.70;;;;;;5410087;26;20004;-78
2024/05/08 08:50:41;;;;;;;15.50;11.32;;;18.30;89.70;;;;;;5380719;26;20019;-78
2024/05/08 08:53:11;;;;;;;15.82;10.38;;;18.40;89.20;;;;;;5382641;26;20000;-78
2024/05/08 08:55:40;;;;;;;13.52;10.27;;;18.50;88.80;;;;;;5382430;26;20014;-78
2024/05/08 08:58:10;;;;;;;15.73;11.63;;;18.50;88.60;;;;;;5380441;26;20024;-78
2024/05/08 09:00:41;;;;;;;14.80;11.25;;;18.40;88.20;;;;;;5351790;26;20081;-78
2024/05/08 09:03:15;;;;;;;12.88;9.45;;;18.30;88.50;;;;;;5380577;26;20347;-78
2024/05/08 09:05:42;;;;;;;13.00;9.43;;;18.40;88.40;;;;;;5380854;26;20000;-78
2024/05/08 09:08:11;;;;;;;15.05;11.00;;;18.50;88.20;;;;;;5379083;26;20016;-80
2024/05/08 09:10:39;;;;;;;15.73;11.27;;;18.60;88.20;;;;;;5380326;26;20015;-79
2024/05/08 09:13:08;;;;;;;15.52;11.23;;;18.80;88.00;;;;;;5380922;26;20421;-79
2024/05/08 09:15:35;;;;;;;13.27;8.30;;;18.90;87.10;;;;;;5380717;26;20854;-79
2024/05/08 09:18:03;;;;;;;15.85;10.45;;;19.10;86.90;;;;;;5340124;26;19997;-79
2024/05/08 09:20:31;;;;;;;15.10;10.30;;;19.20;86.60;;;;;;5346143;26;20001;-79
2024/05/08 09:22:59;;;;;;;14.68;10.55;;;19.40;86.00;;;;;;5329586;26;20001;-79
2024/05/08 09:25:26;;;;;;;12.70;9.27;;;19.60;85.90;;;;;;5374849;26;20520;-79
2024/05/08 09:27:55;;;;;;;11.40;8.82;;;20.00;85.70;;;;;;5380112;26;20016;-79
2024/05/08 09:30:23;;;;;;;15.20;10.32;;;20.20;84.90;;;;;;5380080;26;20358;-80
2024/05/08 09:32:57;;;;;;;13.88;9.65;;;20.30;84.10;;;;;;5352394;26;20013;-79
2024/05/08 09:35:26;;;;;;;20.55;11.13;;;20.30;83.20;;;;;;5379868;26;20077;-79
2024/05/08 09:37:53;;;;;;;14.45;10.63;;;20.00;83.50;;;;;;5350519;26;20449;-79
2024/05/08 09:40:20;;;;;;;13.55;10.52;;;19.90;83.70;;;;;;5351080;26;20077;-79
2024/05/08 09:42:54;;;;;;;12.57;9.80;;;19.80;84.10;;;;;;5407629;26;20012;-79
2024/05/08 09:45:21;;;;;;;13.93;11.65;;;19.70;85.10;;;;;;5380586;26;20074;-79
2024/05/08 09:47:51;;;;;;;18.35;11.43;;;19.70;84.50;;;;;;5351369;26;19997;-79
2024/05/08 09:50:18;;;;;;;14.25;11.27;;;19.60;84.60;;;;;;5380466;26;20015;-79
2024/05/08 09:52:55;;;;;;;13.30;9.93;;;19.70;84.90;;;;;;5353074;26;19996;-79
2024/05/08 09:55:27;;;;;;;14.85;10.70;;;19.90;84.80;;;;;;5351632;26;19996;-79
2024/05/08 09:57:55;;;;;;;14.40;10.38;;;20.10;84.50;;;;;;5379958;26;20325;-79
2024/05/08 10:00:24;;;;;;;13.80;10.57;;;20.30;84.00;;;;;;5409802;26;20538;-79
2024/05/08 10:02:56;;;;;;;13.73;11.15;;;20.60;83.70;;;;;;5352275;26;20000;-79
2024/05/08 10:05:23;;;;;;;11.48;10.20;;;20.90;82.90;;;;;;5351032;26;20001;-79
2024/05/08 10:07:57;;;;;;;13.25;10.20;;;21.20;82.70;;;;;;5409657;26;20012;-80
2024/05/08 10:10:28;;;;;;;14.65;11.30;;;21.50;81.60;;;;;;5379907;26;20000;-81
2024/05/08 10:13:16;;;;;;;13.57;10.48;;;21.90;80.80;;;;;;5352899;26;20007;-80
2024/05/08 10:15:53;;;;;;;13.38;11.13;;;22.30;79.90;;;;;;5344368;26;20393;-80
2024/05/08 10:18:41;;;;;;;12.32;10.02;;;22.50;78.60;;;;;;5286612;26;20001;-79
2024/05/08 10:21:11;;;;;;;13.73;11.25;;;22.60;78.20;;;;;;5315316;26;20016;-79
2024/05/08 10:23:53;;;;;;;13.07;11.05;;;22.70;77.70;;;;;;5315521;26;20446;-80
2024/05/08 10:26:33;;;;;;;12.88;11.35;;;22.80;77.80;;;;;;5315247;26;20011;-80
2024/05/08 10:29:01;;;;;;;15.02;11.85;;;23.10;77.70;;;;;;5343390;26;19997;-80
2024/05/08 10:31:29;;;;;;;13.10;10.23;;;23.20;77.10;;;;;;5346062;26;20042;-80
2024/05/08 10:33:56;;;;;;;12.13;10.40;;;23.40;76.50;;;;;;5288651;26;20032;-80
2024/05/08 10:36:28;;;;;;;22.25;11.55;;;23.50;75.80;;;;;;5344940;26;19997;-80
2024/05/08 10:38:56;;;;;;;12.10;10.90;;;23.50;75.70;;;;;;5346709;26;20382;-80
2024/05/08 10:41:24;;;;;;;11.30;9.95;;;23.90;75.30;;;;;;5287765;26;20079;-80
2024/05/08 10:43:58;;;;;;;10.73;9.57;;;24.60;74.00;;;;;;5344135;26;20465;-80
2024/05/08 10:46:26;;;;;;;11.07;8.25;;;24.80;73.10;;;;;;5344689;26;20074;-80
2024/05/08 10:48:53;;;;;;;11.05;9.82;;;24.70;72.80;;;;;;5344613;26;20016;-80
2024/05/08 10:51:22;;;;;;;11.00;9.35;;;24.20;72.90;;;;;;5353453;26;20026;-80
2024/05/08 10:53:53;;;;;;;12.73;10.85;;;23.50;73.70;;;;;;5338721;26;20001;-79
2024/05/08 10:56:21;;;;;;;15.30;11.50;;;23.00;74.80;;;;;;5352955;26;20392;-79
2024/05/08 10:58:49;;;;;;;13.10;10.65;;;22.70;75.40;;;;;;5380186;26;20449;-79
2024/05/08 11:01:16;;;;;;;14.93;10.85;;;22.40;75.70;;;;;;5379363;26;20015;-78
2024/05/08 11:03:48;;;;;;;12.32;10.68;;;22.10;76.00;;;;;;5379446;26;20012;-78
2024/05/08 11:06:29;;;;;;;11.93;10.02;;;21.80;76.30;;;;;;5378580;26;20426;-78
2024/05/08 11:09:02;;;;;;;13.10;10.43;;;21.40;76.80;;;;;;5379008;26;20028;-78
2024/05/08 11:11:33;;;;;;;13.95;10.60;;;21.20;77.20;;;;;;5380752;26;20032;-78
2024/05/08 11:14:02;;;;;;;12.02;10.68;;;21.00;78.00;;;;;;5380373;26;20004;-78
2024/05/08 11:16:29;;;;;;;14.35;10.65;;;20.80;78.00;;;;;;5378466;26;20004;-79
2024/05/08 11:18:56;;;;;;;15.48;10.32;;;20.80;78.10;;;;;;5380075;26;20004;-78
2024/05/08 11:21:24;;;;;;;13.70;11.27;;;20.70;78.50;;;;;;5378624;26;20000;-78
2024/05/08 11:23:50;;;;;;;12.60;10.75;;;20.60;78.70;;;;;;5380166;26;20000;-78
2024/05/08 11:26:17;;;;;;;12.52;10.13;;;20.60;79.00;;;;;;5378211;26;20019;-78
2024/05/08 11:28:45;;;;;;;14.82;10.82;;;20.80;78.90;;;;;;5378277;26;20077;-79
2024/05/08 11:31:12;;;;;;;13.10;10.57;;;21.00;78.60;;;;;;5349113;26;20014;-79
2024/05/08 11:33:39;;;;;;;13.85;11.20;;;21.10;78.30;;;;;;5349255;26;20011;-79
2024/05/08 11:36:11;;;;;;;13.18;10.77;;;21.10;78.20;;;;;;5378017;26;20078;-78
2024/05/08 11:38:38;;;;;;;12.50;10.40;;;21.20;77.90;;;;;;5379964;26;20000;-79
2024/05/08 11:41:05;;;;;;;14.88;10.50;;;21.20;77.70;;;;;;5349331;26;20299;-79
2024/05/08 11:43:32;;;;;;;14.52;11.07;;;21.40;77.60;;;;;;5372031;26;20040;-79
2024/05/08 11:45:59;;;;;;;14.57;11.57;;;21.50;77.30;;;;;;5343039;26;20012;-79
2024/05/08 11:48:27;;;;;;;12.27;9.68;;;21.50;77.30;;;;;;5405074;26;20000;-79
2024/05/08 11:50:54;;;;;;;13.50;11.30;;;21.60;77.30;;;;;;5378056;26;20012;-79
2024/05/08 11:53:21;;;;;;;13.52;11.13;;;21.50;76.70;;;;;;5371708;26;20423;-79
2024/05/08 11:55:48;;;;;;;11.38;10.18;;;21.40;77.00;;;;;;5342810;26;19997;-79
2024/05/08 11:58:15;;;;;;;11.13;9.18;;;21.20;77.20;;;;;;5342437;26;20442;-78
2024/05/08 12:00:42;;;;;;;12.40;10.20;;;21.20;77.40;;;;;;5343028;26;20016;-79
2024/05/08 12:03:10;;;;;;;15.30;11.13;;;21.20;77.60;;;;;;5377965;26;20027;-79
2024/05/08 12:05:39;;;;;;;17.75;13.20;;;21.30;77.50;;;;;;5377277;26;20008;-79
2024/05/08 12:08:07;;;;;;;11.82;9.35;;;21.40;77.30;;;;;;5380967;26;20037;-78
2024/05/08 12:10:34;;;;;;;12.18;10.25;;;21.60;77.20;;;;;;5352300;26;20130;-78
2024/05/08 12:13:03;;;;;;;12.95;10.30;;;21.80;76.80;;;;;;5324428;26;20407;-79
2024/05/08 12:15:30;;;;;;;12.68;10.60;;;21.80;76.30;;;;;;5352083;26;20008;-79
2024/05/08 12:17:58;;;;;;;13.40;10.30;;;21.90;76.30;;;;;;5352267;26;20073;-79
2024/05/08 12:20:26;;;;;;;13.30;11.20;;;21.90;76.00;;;;;;5352650;26;20524;-79
2024/05/08 12:22:56;;;;;;;13.60;10.25;;;22.00;75.80;;;;;;5410526;26;19996;-79
2024/05/08 12:25:23;;;;;;;11.70;9.95;;;22.20;75.90;;;;;;5351820;26;19997;-79
2024/05/08 12:27:50;;;;;;;11.48;9.57;;;22.40;75.50;;;;;;5352337;26;20008;-79
2024/05/08 12:30:18;;;;;;;14.40;11.43;;;22.60;75.10;;;;;;5382564;26;20007;-79
2024/05/08 12:32:51;;;;;;;10.48;8.75;;;22.80;74.70;;;;;;5381518;26;20010;-79
2024/05/08 12:35:18;;;;;;;11.80;10.43;;;23.00;74.10;;;;;;5381262;26;20450;-80
2024/05/08 12:37:45;;;;;;;11.60;9.52;;;23.10;73.90;;;;;;5381160;26;20147;-79
2024/05/08 12:40:12;;;;;;;13.80;11.23;;;23.30;73.70;;;;;;5352299;26;20000;-79
2024/05/08 12:42:44;;;;;;;12.85;9.52;;;23.60;73.40;;;;;;5353486;26;20449;-79